Pollenca, Spain
Current Conditions -  °F | °C
As of 2:30 PM on Friday 31 Oct 2014 (Local Time) from LEPA Reporting Station
Scattered Clouds Scattered Clouds  
Wind Chill: 24°   Ceiling: Unl
Heat Index: 24°   Visibility: 6mi
Dew Point: 14°   Wind: 7mph
Humidity: 53%   Direction: 50°NE
Pressure: 30.18"   Gusts: NA
Location:  39.88°N, 3.02°E
Report Text: LEPA 311330Z 05006KT 360V090 9999 FEW026 SCT045 24/14 Q1022 NOSIG
Loading
Personal Weather Stations






























Interactive Weather Map
Tropical Storm Tracking
New forecast layout! Learn more

10-Day Weather Forecast

Advertisements
Track Severe Weather on mobile